sensor_id;sensor_type;location;lat;lon;timestamp;pressure;altitude;pressure_sealevel;temperature;humidity
69911;BME280;63555;49.920;17.868;2023-05-08T00:03:38;99576.09;;;6.13;76.45
69911;BME280;63555;49.920;17.868;2023-05-08T00:08:38;99577.91;;;6.11;76.31
69911;BME280;63555;49.920;17.868;2023-05-08T00:13:39;99569.28;;;6.09;76.54
69911;BME280;63555;49.920;17.868;2023-05-08T00:18:40;99583.41;;;6.04;76.84
69911;BME280;63555;49.920;17.868;2023-05-08T00:23:41;99586.16;;;6.01;76.54
69911;BME280;63555;49.920;17.868;2023-05-08T00:28:41;99580.13;;;5.99;76.66
69911;BME280;63555;49.920;17.868;2023-05-08T00:33:41;99575.88;;;5.97;76.23
69911;BME280;63555;49.920;17.868;2023-05-08T00:38:42;99584.66;;;5.96;76.41
69911;BME280;63555;49.920;17.868;2023-05-08T00:43:42;99573.25;;;5.97;76.19
69911;BME280;63555;49.920;17.868;2023-05-08T00:48:42;99575.88;;;5.97;76.38
69911;BME280;63555;49.920;17.868;2023-05-08T00:53:43;99589.03;;;5.95;75.95
69911;BME280;63555;49.920;17.868;2023-05-08T00:58:44;99589.94;;;5.94;75.52
69911;BME280;63555;49.920;17.868;2023-05-08T01:03:45;99582.09;;;5.94;75.45
69911;BME280;63555;49.920;17.868;2023-05-08T01:08:46;99589.16;;;5.92;75.51
69911;BME280;63555;49.920;17.868;2023-05-08T01:14:00;99591.78;;;5.92;75.72
69911;BME280;63555;49.920;17.868;2023-05-08T01:20:09;99595.41;;;5.88;75.53
69911;BME280;63555;49.920;17.868;2023-05-08T01:35:26;99606.28;;;5.79;75.86
69911;BME280;63555;49.920;17.868;2023-05-08T01:45:44;99597.13;;;5.69;76.48
69911;BME280;63555;49.920;17.868;2023-05-08T01:50:48;99600.66;;;5.68;76.47
69911;BME280;63555;49.920;17.868;2023-05-08T01:55:55;99595.56;;;5.65;76.26
69911;BME280;63555;49.920;17.868;2023-05-08T02:00:57;99599.75;;;5.69;75.94
69911;BME280;63555;49.920;17.868;2023-05-08T02:06:00;99607.84;;;5.63;76.56
69911;BME280;63555;49.920;17.868;2023-05-08T02:11:01;99610.72;;;5.57;76.29
69911;BME280;63555;49.920;17.868;2023-05-08T02:16:06;99617.00;;;5.53;76.50
69911;BME280;63555;49.920;17.868;2023-05-08T02:21:09;99623.22;;;5.50;76.52
69911;BME280;63555;49.920;17.868;2023-05-08T02:26:14;99621.56;;;5.48;76.89
69911;BME280;63555;49.920;17.868;2023-05-08T02:31:15;99621.56;;;5.48;76.74
69911;BME280;63555;49.920;17.868;2023-05-08T02:36:17;99613.72;;;5.48;76.53
69911;BME280;63555;49.920;17.868;2023-05-08T02:41:19;99620.59;;;5.50;76.75
69911;BME280;63555;49.920;17.868;2023-05-08T02:46:24;99624.91;;;5.51;76.55
69911;BME280;63555;49.920;17.868;2023-05-08T02:51:38;99628.50;;;5.49;76.66
69911;BME280;63555;49.920;17.868;2023-05-08T02:56:49;99629.72;;;5.40;76.89
69911;BME280;63555;49.920;17.868;2023-05-08T03:02:47;99625.59;;;5.34;76.84
69911;BME280;63555;49.920;17.868;2023-05-08T03:07:41;99630.03;;;5.32;77.13
69911;BME280;63555;49.920;17.868;2023-05-08T03:12:45;99623.84;;;5.35;76.67
69911;BME280;63555;49.920;17.868;2023-05-08T03:17:50;99627.38;;;5.34;76.67
69911;BME280;63555;49.920;17.868;2023-05-08T03:22:53;99635.22;;;5.34;76.67
69911;BME280;63555;49.920;17.868;2023-05-08T03:27:55;99636.78;;;5.38;76.32
69911;BME280;63555;49.920;17.868;2023-05-08T03:32:57;99644.63;;;5.38;76.26
69911;BME280;63555;49.920;17.868;2023-05-08T03:37:58;99642.75;;;5.41;76.64
69911;BME280;63555;49.920;17.868;2023-05-08T03:42:59;99641.84;;;5.42;76.16
69911;BME280;63555;49.920;17.868;2023-05-08T03:48:00;99638.19;;;5.47;75.84
69911;BME280;63555;49.920;17.868;2023-05-08T03:53:02;99647.78;;;5.46;75.76
69911;BME280;63555;49.920;17.868;2023-05-08T03:58:27;99649.50;;;5.47;75.81
69911;BME280;63555;49.920;17.868;2023-05-08T04:08:54;99645.84;;;5.51;75.58
69911;BME280;63555;49.920;17.868;2023-05-08T04:14:03;99647.41;;;5.55;75.66
69911;BME280;63555;49.920;17.868;2023-05-08T04:19:14;99649.84;;;5.60;75.85
69911;BME280;63555;49.920;17.868;2023-05-08T04:24:18;99655.59;;;5.68;75.50
69911;BME280;63555;49.920;17.868;2023-05-08T04:29:20;99668.44;;;5.74;75.69
69911;BME280;63555;49.920;17.868;2023-05-08T04:34:21;99669.03;;;5.81;75.21
69911;BME280;63555;49.920;17.868;2023-05-08T04:39:22;99674.06;;;5.85;74.90
69911;BME280;63555;49.920;17.868;2023-05-08T04:44:22;99677.59;;;5.84;74.75
69911;BME280;63555;49.920;17.868;2023-05-08T04:49:23;99675.97;;;5.82;75.18
69911;BME280;63555;49.920;17.868;2023-05-08T04:54:23;99688.25;;;5.80;75.16
69911;BME280;63555;49.920;17.868;2023-05-08T04:59:23;99686.16;;;5.89;75.32
69911;BME280;63555;49.920;17.868;2023-05-08T05:04:27;99692.63;;;6.01;75.46
69911;BME280;63555;49.920;17.868;2023-05-08T05:09:28;99687.91;;;6.11;75.42
69911;BME280;63555;49.920;17.868;2023-05-08T05:14:29;99702.22;;;6.22;74.75
69911;BME280;63555;49.920;17.868;2023-05-08T05:19:29;99703.59;;;6.31;74.29
69911;BME280;63555;49.920;17.868;2023-05-08T05:24:30;99709.44;;;6.37;74.08
69911;BME280;63555;49.920;17.868;2023-05-08T05:29:30;99712.44;;;6.49;73.66
69911;BME280;63555;49.920;17.868;2023-05-08T05:34:30;99710.47;;;6.54;73.81
69911;BME280;63555;49.920;17.868;2023-05-08T05:39:31;99718.91;;;6.60;73.99
69911;BME280;63555;49.920;17.868;2023-05-08T05:44:31;99720.47;;;6.64;73.30
69911;BME280;63555;49.920;17.868;2023-05-08T05:49:31;99719.47;;;6.67;73.13
69911;BME280;63555;49.920;17.868;2023-05-08T05:54:32;99731.06;;;6.82;73.34
69911;BME280;63555;49.920;17.868;2023-05-08T05:59:32;99735.88;;;6.91;72.66
69911;BME280;63555;49.920;17.868;2023-05-08T06:04:33;99738.63;;;6.88;72.35
69911;BME280;63555;49.920;17.868;2023-05-08T06:09:33;99742.31;;;6.84;72.30
69911;BME280;63555;49.920;17.868;2023-05-08T06:14:34;99745.66;;;6.87;72.41
69911;BME280;63555;49.920;17.868;2023-05-08T06:19:34;99748.88;;;6.94;72.73
69911;BME280;63555;49.920;17.868;2023-05-08T06:24:35;99747.16;;;6.93;72.07
69911;BME280;63555;49.920;17.868;2023-05-08T06:29:36;99752.53;;;6.90;72.67
69911;BME280;63555;49.920;17.868;2023-05-08T06:34:36;99761.31;;;6.89;71.75
69911;BME280;63555;49.920;17.868;2023-05-08T06:39:36;99764.56;;;6.95;72.22
69911;BME280;63555;49.920;17.868;2023-05-08T06:44:38;99768.81;;;7.17;71.79
69911;BME280;63555;49.920;17.868;2023-05-08T06:49:39;99770.53;;;7.55;71.33
69911;BME280;63555;49.920;17.868;2023-05-08T06:54:40;99772.56;;;7.86;70.63
69911;BME280;63555;49.920;17.868;2023-05-08T06:59:41;99767.97;;;8.09;69.76
69911;BME280;63555;49.920;17.868;2023-05-08T07:04:42;99774.63;;;8.16;69.80
69911;BME280;63555;49.920;17.868;2023-05-08T07:09:43;99776.09;;;8.21;68.86
69911;BME280;63555;49.920;17.868;2023-05-08T07:14:43;99776.72;;;8.26;68.95
69911;BME280;63555;49.920;17.868;2023-05-08T07:19:43;99781.47;;;8.37;68.54
69911;BME280;63555;49.920;17.868;2023-05-08T07:24:44;99789.63;;;8.66;67.61
69911;BME280;63555;49.920;17.868;2023-05-08T07:29:44;99790.72;;;8.96;66.69
69911;BME280;63555;49.920;17.868;2023-05-08T07:34:45;99788.25;;;9.42;66.67
69911;BME280;63555;49.920;17.868;2023-05-08T07:39:45;99797.13;;;9.88;64.93
69911;BME280;63555;49.920;17.868;2023-05-08T07:44:46;99801.78;;;9.99;63.84
69911;BME280;63555;49.920;17.868;2023-05-08T07:49:47;99794.59;;;11.21;63.34
69911;BME280;63555;49.920;17.868;2023-05-08T07:54:47;99797.94;;;12.73;58.82
69911;BME280;63555;49.920;17.868;2023-05-08T07:59:47;99804.94;;;12.22;57.21
69911;BME280;63555;49.920;17.868;2023-05-08T08:04:48;99809.13;;;11.42;57.90
69911;BME280;63555;49.920;17.868;2023-05-08T08:09:48;99799.56;;;11.25;59.22
69911;BME280;63555;49.920;17.868;2023-05-08T08:14:48;99798.28;;;12.02;57.59
69911;BME280;63555;49.920;17.868;2023-05-08T08:19:49;99796.56;;;14.06;55.50
69911;BME280;63555;49.920;17.868;2023-05-08T08:24:49;99805.94;;;15.83;51.99
69911;BME280;63555;49.920;17.868;2023-05-08T08:29:50;99804.47;;;15.90;50.49
69911;BME280;63555;49.920;17.868;2023-05-08T08:34:50;99795.19;;;15.63;50.80
69911;BME280;63555;49.920;17.868;2023-05-08T08:39:51;99798.94;;;16.14;49.62
69911;BME280;63555;49.920;17.868;2023-05-08T08:44:51;99793.44;;;16.91;48.28
69911;BME280;63555;49.920;17.868;2023-05-08T08:49:52;99792.81;;;18.09;46.18
69911;BME280;63555;49.920;17.868;2023-05-08T08:54:55;99803.03;;;17.55;45.59
69911;BME280;63555;49.920;17.868;2023-05-08T08:59:57;99804.41;;;16.98;46.66
69911;BME280;63555;49.920;17.868;2023-05-08T09:04:59;99799.31;;;18.45;44.14
69911;BME280;63555;49.920;17.868;2023-05-08T09:09:59;99802.09;;;19.58;41.79
69911;BME280;63555;49.920;17.868;2023-05-08T09:15:00;99797.81;;;20.02;39.67
69911;BME280;63555;49.920;17.868;2023-05-08T09:20:01;99792.78;;;20.35;39.35
69911;BME280;63555;49.920;17.868;2023-05-08T09:25:02;99798.19;;;20.96;37.98
69911;BME280;63555;49.920;17.868;2023-05-08T09:30:07;99808.91;;;20.79;36.82
69911;BME280;63555;49.920;17.868;2023-05-08T09:35:09;99808.66;;;20.01;37.62
69911;BME280;63555;49.920;17.868;2023-05-08T09:40:18;99797.06;;;20.81;37.14
69911;BME280;63555;49.920;17.868;2023-05-08T09:45:31;99788.34;;;21.57;35.03
69911;BME280;63555;49.920;17.868;2023-05-08T09:50:32;99803.94;;;20.30;36.72
69911;BME280;63555;49.920;17.868;2023-05-08T09:55:46;99791.59;;;19.37;38.01
69911;BME280;63555;49.920;17.868;2023-05-08T10:00:46;99796.91;;;18.91;38.82
69911;BME280;63555;49.920;17.868;2023-05-08T10:05:46;99778.56;;;19.62;37.78
69911;BME280;63555;49.920;17.868;2023-05-08T10:10:47;99778.97;;;22.03;35.84
69911;BME280;63555;49.920;17.868;2023-05-08T10:15:50;99778.75;;;23.67;32.99
69911;BME280;63555;49.920;17.868;2023-05-08T10:20:54;99767.00;;;23.52;32.43
69911;BME280;63555;49.920;17.868;2023-05-08T10:26:03;99765.22;;;23.20;31.67
69911;BME280;63555;49.920;17.868;2023-05-08T10:31:10;99770.03;;;23.49;31.30
69911;BME280;63555;49.920;17.868;2023-05-08T10:36:13;99757.06;;;23.92;31.48
69911;BME280;63555;49.920;17.868;2023-05-08T10:41:14;99756.44;;;23.42;31.29
69911;BME280;63555;49.920;17.868;2023-05-08T10:47:09;99741.19;;;23.18;31.46
69911;BME280;63555;49.920;17.868;2023-05-08T10:57:10;99744.66;;;21.89;31.87
69911;BME280;63555;49.920;17.868;2023-05-08T11:02:11;99743.28;;;21.35;32.85
69911;BME280;63555;49.920;17.868;2023-05-08T11:07:11;99745.63;;;22.54;31.57
69911;BME280;63555;49.920;17.868;2023-05-08T11:17:23;99735.47;;;24.54;28.75
69911;BME280;63555;49.920;17.868;2023-05-08T11:22:25;99725.16;;;24.72;28.29
69911;BME280;63555;49.920;17.868;2023-05-08T11:38:25;99726.19;;;24.71;28.26
69911;BME280;63555;49.920;17.868;2023-05-08T11:48:32;99711.75;;;25.96;27.08
69911;BME280;63555;49.920;17.868;2023-05-08T11:53:34;99709.16;;;26.46;25.83
69911;BME280;63555;49.920;17.868;2023-05-08T11:58:35;99708.94;;;26.05;26.08
69911;BME280;63555;49.920;17.868;2023-05-08T12:03:35;99701.75;;;25.76;26.29
69911;BME280;63555;49.920;17.868;2023-05-08T12:08:37;99689.47;;;25.94;25.63
69911;BME280;63555;49.920;17.868;2023-05-08T12:13:38;99704.66;;;25.45;26.16
69911;BME280;63555;49.920;17.868;2023-05-08T12:18:38;99708.59;;;25.42;26.12
69911;BME280;63555;49.920;17.868;2023-05-08T12:23:39;99715.88;;;24.74;26.70
69911;BME280;63555;49.920;17.868;2023-05-08T12:28:39;99696.44;;;24.79;26.14
69911;BME280;63555;49.920;17.868;2023-05-08T12:33:43;99701.16;;;24.17;26.70
69911;BME280;63555;49.920;17.868;2023-05-08T12:38:43;99698.81;;;23.91;27.09
69911;BME280;63555;49.920;17.868;2023-05-08T12:43:45;99687.84;;;24.15;26.76
69911;BME280;63555;49.920;17.868;2023-05-08T12:48:46;99686.28;;;24.81;26.27
69911;BME280;63555;49.920;17.868;2023-05-08T12:53:49;99686.94;;;24.68;26.22
69911;BME280;63555;49.920;17.868;2023-05-08T12:58:49;99679.72;;;24.98;26.16
69911;BME280;63555;49.920;17.868;2023-05-08T13:03:51;99682.59;;;25.12;26.06
69911;BME280;63555;49.920;17.868;2023-05-08T13:08:53;99685.84;;;24.40;26.20
69911;BME280;63555;49.920;17.868;2023-05-08T13:13:56;99687.13;;;24.29;26.45
69911;BME280;63555;49.920;17.868;2023-05-08T13:18:57;99682.69;;;24.36;26.12
69911;BME280;63555;49.920;17.868;2023-05-08T13:23:57;99677.13;;;24.07;26.12
69911;BME280;63555;49.920;17.868;2023-05-08T13:28:57;99678.19;;;23.36;27.21
69911;BME280;63555;49.920;17.868;2023-05-08T13:33:58;99678.81;;;23.54;26.78
69911;BME280;63555;49.920;17.868;2023-05-08T13:38:58;99671.25;;;23.58;27.31
69911;BME280;63555;49.920;17.868;2023-05-08T13:43:59;99673.69;;;23.28;27.29
69911;BME280;63555;49.920;17.868;2023-05-08T13:48:59;99661.94;;;22.66;27.63
69911;BME280;63555;49.920;17.868;2023-05-08T13:53:59;99672.34;;;22.44;27.81
69911;BME280;63555;49.920;17.868;2023-05-08T13:59:00;99662.75;;;22.01;28.07
69911;BME280;63555;49.920;17.868;2023-05-08T14:04:00;99667.03;;;21.53;28.93
69911;BME280;63555;49.920;17.868;2023-05-08T14:09:00;99667.13;;;21.27;29.21
69911;BME280;63555;49.920;17.868;2023-05-08T14:14:01;99656.66;;;20.39;30.25
69911;BME280;63555;49.920;17.868;2023-05-08T14:19:01;99662.28;;;19.92;31.41
69911;BME280;63555;49.920;17.868;2023-05-08T14:24:02;99669.94;;;19.14;32.17
69911;BME280;63555;49.920;17.868;2023-05-08T14:29:03;99672.91;;;18.55;32.90
69911;BME280;63555;49.920;17.868;2023-05-08T14:34:03;99673.81;;;18.07;33.64
69911;BME280;63555;49.920;17.868;2023-05-08T14:39:04;99671.13;;;18.36;33.08
69911;BME280;63555;49.920;17.868;2023-05-08T14:44:04;99684.03;;;18.69;32.48
69911;BME280;63555;49.920;17.868;2023-05-08T14:49:04;99680.94;;;18.64;32.30
69911;BME280;63555;49.920;17.868;2023-05-08T14:54:05;99681.44;;;18.87;31.88
69911;BME280;63555;49.920;17.868;2023-05-08T14:59:05;99675.75;;;19.09;31.51
69911;BME280;63555;49.920;17.868;2023-05-08T15:04:06;99670.84;;;18.20;32.50
69911;BME280;63555;49.920;17.868;2023-05-08T15:09:07;99665.50;;;18.10;33.10
69911;BME280;63555;49.920;17.868;2023-05-08T15:14:08;99669.88;;;18.40;32.84
69911;BME280;63555;49.920;17.868;2023-05-08T15:19:09;99660.22;;;18.76;32.52
69911;BME280;63555;49.920;17.868;2023-05-08T15:24:09;99668.97;;;18.68;32.36
69911;BME280;63555;49.920;17.868;2023-05-08T15:29:10;99675.06;;;18.03;33.74
69911;BME280;63555;49.920;17.868;2023-05-08T15:34:12;99664.25;;;17.26;34.59
69911;BME280;63555;49.920;17.868;2023-05-08T15:39:12;99670.19;;;16.27;35.98
69911;BME280;63555;49.920;17.868;2023-05-08T15:44:13;99674.88;;;15.81;36.80
69911;BME280;63555;49.920;17.868;2023-05-08T15:49:13;99673.25;;;15.36;38.07
69911;BME280;63555;49.920;17.868;2023-05-08T15:54:13;99677.78;;;14.79;38.53
69911;BME280;63555;49.920;17.868;2023-05-08T15:59:14;99678.34;;;14.25;39.31
69911;BME280;63555;49.920;17.868;2023-05-08T16:04:14;99673.78;;;13.68;40.57
69911;BME280;63555;49.920;17.868;2023-05-08T16:09:14;99674.81;;;13.18;40.96
69911;BME280;63555;49.920;17.868;2023-05-08T16:14:15;99671.66;;;12.50;42.03
69911;BME280;63555;49.920;17.868;2023-05-08T16:19:16;99677.28;;;12.32;42.19
69911;BME280;63555;49.920;17.868;2023-05-08T16:24:16;99665.22;;;12.28;42.08
69911;BME280;63555;49.920;17.868;2023-05-08T16:29:16;99659.06;;;12.40;42.04
69911;BME280;63555;49.920;17.868;2023-05-08T16:34:17;99668.06;;;12.25;42.75
69911;BME280;63555;49.920;17.868;2023-05-08T16:39:17;99672.00;;;11.93;42.93
69911;BME280;63555;49.920;17.868;2023-05-08T16:44:18;99678.63;;;11.59;43.49
69911;BME280;63555;49.920;17.868;2023-05-08T16:49:18;99684.44;;;11.23;44.44
69911;BME280;63555;49.920;17.868;2023-05-08T16:54:18;99682.88;;;10.92;44.96
69911;BME280;63555;49.920;17.868;2023-05-08T16:59:19;99677.81;;;10.74;46.08
69911;BME280;63555;49.920;17.868;2023-05-08T17:04:19;99689.88;;;10.64;46.30
69911;BME280;63555;49.920;17.868;2023-05-08T17:09:20;99683.69;;;10.35;46.21
69911;BME280;63555;49.920;17.868;2023-05-08T17:14:20;99683.19;;;9.99;46.92
69911;BME280;63555;49.920;17.868;2023-05-08T17:19:20;99686.69;;;9.69;47.91
69911;BME280;63555;49.920;17.868;2023-05-08T17:24:21;99686.16;;;9.47;48.28
69911;BME280;63555;49.920;17.868;2023-05-08T17:29:21;99690.69;;;9.29;48.61
69911;BME280;63555;49.920;17.868;2023-05-08T17:34:22;99687.97;;;9.15;48.50
69911;BME280;63555;49.920;17.868;2023-05-08T17:39:22;99682.34;;;9.05;48.81
69911;BME280;63555;49.920;17.868;2023-05-08T17:44:22;99689.97;;;8.94;49.15
69911;BME280;63555;49.920;17.868;2023-05-08T17:49:23;99696.75;;;8.82;49.20
69911;BME280;63555;49.920;17.868;2023-05-08T17:54:23;99691.44;;;8.67;49.49
69911;BME280;63555;49.920;17.868;2023-05-08T17:59:23;99694.84;;;8.51;50.06
69911;BME280;63555;49.920;17.868;2023-05-08T18:04:24;99706.31;;;8.33;50.97
69911;BME280;63555;49.920;17.868;2023-05-08T18:09:25;99702.34;;;8.24;51.54
69911;BME280;63555;49.920;17.868;2023-05-08T18:14:28;99702.91;;;8.14;51.44
69911;BME280;63555;49.920;17.868;2023-05-08T18:19:29;99713.94;;;8.03;52.32
69911;BME280;63555;49.920;17.868;2023-05-08T18:24:29;99715.50;;;7.90;51.95
69911;BME280;63555;49.920;17.868;2023-05-08T18:29:29;99714.44;;;7.75;53.13
69911;BME280;63555;49.920;17.868;2023-05-08T18:34:30;99713.19;;;7.65;53.17
69911;BME280;63555;49.920;17.868;2023-05-08T18:39:31;99717.19;;;7.55;53.94
69911;BME280;63555;49.920;17.868;2023-05-08T18:44:32;99723.66;;;7.48;54.50
69911;BME280;63555;49.920;17.868;2023-05-08T18:49:33;99718.97;;;7.35;54.30
69911;BME280;63555;49.920;17.868;2023-05-08T18:54:33;99715.94;;;7.26;54.89
69911;BME280;63555;49.920;17.868;2023-05-08T18:59:34;99726.00;;;7.16;55.07
69911;BME280;63555;49.920;17.868;2023-05-08T19:04:34;99728.06;;;7.10;55.45
69911;BME280;63555;49.920;17.868;2023-05-08T19:09:34;99730.19;;;7.01;56.20
69911;BME280;63555;49.920;17.868;2023-05-08T19:14:35;99737.28;;;6.99;56.24
69911;BME280;63555;49.920;17.868;2023-05-08T19:19:35;99735.63;;;6.97;56.81
69911;BME280;63555;49.920;17.868;2023-05-08T19:24:35;99731.63;;;6.88;56.67
69911;BME280;63555;49.920;17.868;2023-05-08T19:29:36;99727.00;;;6.75;57.39
69911;BME280;63555;49.920;17.868;2023-05-08T19:34:36;99729.25;;;6.63;57.89
69911;BME280;63555;49.920;17.868;2023-05-08T19:39:38;99730.50;;;6.55;57.71
69911;BME280;63555;49.920;17.868;2023-05-08T19:44:38;99715.38;;;6.41;58.16
69911;BME280;63555;49.920;17.868;2023-05-08T19:49:39;99710.75;;;6.27;58.54
69911;BME280;63555;49.920;17.868;2023-05-08T19:54:39;99713.09;;;6.13;58.39
69911;BME280;63555;49.920;17.868;2023-05-08T19:59:39;99720.78;;;5.96;58.66
69911;BME280;63555;49.920;17.868;2023-05-08T20:04:40;99702.47;;;5.74;58.50
69911;BME280;63555;49.920;17.868;2023-05-08T20:09:40;99709.22;;;5.58;59.76
69911;BME280;63555;49.920;17.868;2023-05-08T20:14:40;99703.31;;;5.53;60.47
69911;BME280;63555;49.920;17.868;2023-05-08T20:19:41;99698.28;;;5.48;60.10
69911;BME280;63555;49.920;17.868;2023-05-08T20:24:41;99705.81;;;5.34;60.35
69911;BME280;63555;49.920;17.868;2023-05-08T20:29:41;99696.84;;;5.18;60.42
69911;BME280;63555;49.920;17.868;2023-05-08T20:34:42;99696.63;;;5.00;60.64
69911;BME280;63555;49.920;17.868;2023-05-08T20:39:43;99691.06;;;4.86;61.22
69911;BME280;63555;49.920;17.868;2023-05-08T20:44:44;99699.44;;;4.72;61.51
69911;BME280;63555;49.920;17.868;2023-05-08T20:49:44;99696.47;;;4.58;61.87
69911;BME280;63555;49.920;17.868;2023-05-08T20:54:44;99690.09;;;4.42;62.03
69911;BME280;63555;49.920;17.868;2023-05-08T20:59:46;99706.31;;;4.25;62.34
69911;BME280;63555;49.920;17.868;2023-05-08T21:04:46;99707.59;;;4.13;62.92
69911;BME280;63555;49.920;17.868;2023-05-08T21:09:47;99706.31;;;4.00;62.42
69911;BME280;63555;49.920;17.868;2023-05-08T21:14:47;99699.81;;;3.87;63.70
69911;BME280;63555;49.920;17.868;2023-05-08T21:19:47;99698.34;;;3.78;63.48
69911;BME280;63555;49.920;17.868;2023-05-08T21:24:48;99702.13;;;3.70;64.21
69911;BME280;63555;49.920;17.868;2023-05-08T21:29:48;99698.06;;;3.61;63.92
69911;BME280;63555;49.920;17.868;2023-05-08T21:34:48;99697.44;;;3.53;63.87
69911;BME280;63555;49.920;17.868;2023-05-08T21:39:49;99697.53;;;3.50;65.11
69911;BME280;63555;49.920;17.868;2023-05-08T21:44:49;99687.22;;;3.47;65.07
69911;BME280;63555;49.920;17.868;2023-05-08T21:49:49;99673.38;;;3.43;64.99
69911;BME280;63555;49.920;17.868;2023-05-08T21:54:50;99684.06;;;3.36;65.02
69911;BME280;63555;49.920;17.868;2023-05-08T21:59:51;99683.59;;;3.23;65.39
69911;BME280;63555;49.920;17.868;2023-05-08T22:04:52;99688.38;;;3.09;65.25
69911;BME280;63555;49.920;17.868;2023-05-08T22:09:53;99680.97;;;2.95;65.16
69911;BME280;63555;49.920;17.868;2023-05-08T22:14:53;99674.47;;;2.80;66.05
69911;BME280;63555;49.920;17.868;2023-05-08T22:19:53;99679.94;;;2.71;66.49
69911;BME280;63555;49.920;17.868;2023-05-08T22:24:53;99675.81;;;2.64;66.92
69911;BME280;63555;49.920;17.868;2023-05-08T22:29:54;99675.25;;;2.53;67.20
69911;BME280;63555;49.920;17.868;2023-05-08T22:34:54;99665.22;;;2.39;66.65
69911;BME280;63555;49.920;17.868;2023-05-08T22:39:55;99670.72;;;2.29;66.88
69911;BME280;63555;49.920;17.868;2023-05-08T22:44:55;99663.25;;;2.16;67.65
69911;BME280;63555;49.920;17.868;2023-05-08T22:49:56;99666.06;;;2.09;67.84
69911;BME280;63555;49.920;17.868;2023-05-08T22:54:56;99665.38;;;2.02;68.29
69911;BME280;63555;49.920;17.868;2023-05-08T22:59:57;99659.44;;;1.97;67.97
69911;BME280;63555;49.920;17.868;2023-05-08T23:04:57;99655.19;;;1.95;68.04
69911;BME280;63555;49.920;17.868;2023-05-08T23:09:58;99648.31;;;1.92;68.25
69911;BME280;63555;49.920;17.868;2023-05-08T23:14:58;99654.41;;;1.91;68.12
69911;BME280;63555;49.920;17.868;2023-05-08T23:19:58;99651.06;;;1.86;68.39
69911;BME280;63555;49.920;17.868;2023-05-08T23:24:59;99639.97;;;1.79;69.23
69911;BME280;63555;49.920;17.868;2023-05-08T23:29:59;99645.22;;;1.78;69.24
69911;BME280;63555;49.920;17.868;2023-05-08T23:35:00;99641.84;;;1.73;69.03
69911;BME280;63555;49.920;17.868;2023-05-08T23:40:00;99645.38;;;1.70;68.93
69911;BME280;63555;49.920;17.868;2023-05-08T23:45:01;99639.38;;;1.68;69.84
69911;BME280;63555;49.920;17.868;2023-05-08T23:50:01;99634.03;;;1.73;69.94
69911;BME280;63555;49.920;17.868;2023-05-08T23:55:02;99630.50;;;1.77;70.26
